createdAt,value
2023-03-10T00:00:25.813Z,10.40
2023-03-10T00:02:55.570Z,9.97
2023-03-10T00:05:25.460Z,9.70
2023-03-10T00:07:55.228Z,10.63
2023-03-10T00:10:25.318Z,9.58
2023-03-10T00:12:55.154Z,10.40
2023-03-10T00:15:25.135Z,9.78
2023-03-10T00:17:55.699Z,9.87
2023-03-10T00:20:26.436Z,10.30
2023-03-10T00:22:56.260Z,9.67
2023-03-10T00:25:25.914Z,10.00
2023-03-10T00:27:55.748Z,9.67
2023-03-10T00:30:25.265Z,9.73
2023-03-10T00:32:55.073Z,10.00
2023-03-10T00:35:25.553Z,9.70
2023-03-10T00:37:56.142Z,9.93
2023-03-10T00:40:25.628Z,9.90
2023-03-10T00:42:55.448Z,9.87
2023-03-10T00:45:25.021Z,9.63
2023-03-10T00:47:54.795Z,9.63
2023-03-10T00:50:24.486Z,9.87
2023-03-10T00:52:54.236Z,9.57
2023-03-10T00:55:23.986Z,9.88
2023-03-10T00:57:53.480Z,9.30
2023-03-10T01:00:24.586Z,9.75
2023-03-10T01:02:54.706Z,9.75
2023-03-10T01:05:24.629Z,10.00
2023-03-10T01:07:54.197Z,9.75
2023-03-10T01:10:24.008Z,9.00
2023-03-10T01:12:53.778Z,9.10
2023-03-10T01:15:24.002Z,9.78
2023-03-10T01:17:53.774Z,9.77
2023-03-10T01:20:23.326Z,9.50
2023-03-10T01:22:53.156Z,9.73
2023-03-10T01:25:22.967Z,9.87
2023-03-10T01:27:52.760Z,10.10
2023-03-10T01:30:22.598Z,10.15
2023-03-10T01:32:53.216Z,10.77
2023-03-10T01:35:23.020Z,10.88
2023-03-10T01:37:53.752Z,9.98
2023-03-10T01:40:23.706Z,10.70
2023-03-10T01:42:54.293Z,9.73
2023-03-10T01:45:27.121Z,10.72
2023-03-10T01:47:58.005Z,10.87
2023-03-10T01:50:27.996Z,9.93
2023-03-10T01:52:58.750Z,10.57
2023-03-10T01:55:40.220Z,10.23
2023-03-10T01:58:12.025Z,10.20
2023-03-10T02:00:42.501Z,10.37
2023-03-10T02:03:24.353Z,10.33
2023-03-10T02:06:00.212Z,9.73
2023-03-10T02:08:32.953Z,10.40
2023-03-10T02:11:03.348Z,10.15
2023-03-10T02:13:33.123Z,9.90
2023-03-10T02:16:04.111Z,9.33
2023-03-10T02:18:34.662Z,9.50
2023-03-10T02:21:28.602Z,9.77
2023-03-10T02:24:17.383Z,9.90
2023-03-10T02:26:55.753Z,10.30
2023-03-10T02:32:17.817Z,10.32
2023-03-10T02:34:47.733Z,10.07
2023-03-10T02:37:32.608Z,11.03
2023-03-10T02:40:04.666Z,10.37
2023-03-10T02:42:37.279Z,10.70
2023-03-10T02:45:08.692Z,10.57
2023-03-10T02:47:38.224Z,11.00
2023-03-10T02:50:09.199Z,10.77
2023-03-10T02:52:47.818Z,10.57
2023-03-10T02:55:18.829Z,10.98
2023-03-10T02:57:48.950Z,10.57
2023-03-10T03:00:18.886Z,11.00
2023-03-10T03:02:48.681Z,10.77
2023-03-10T03:05:18.644Z,10.88
2023-03-10T03:07:48.582Z,11.67
2023-03-10T03:10:18.485Z,11.83
2023-03-10T03:12:50.130Z,11.63
2023-03-10T03:15:21.636Z,11.60
2023-03-10T03:17:51.624Z,12.77
2023-03-10T03:20:22.504Z,11.67
2023-03-10T03:22:52.741Z,13.30
2023-03-10T03:25:24.033Z,12.65
2023-03-10T03:27:54.045Z,13.50
2023-03-10T03:30:26.396Z,13.40
2023-03-10T03:32:57.164Z,12.97
2023-03-10T03:35:31.166Z,13.50
2023-03-10T03:38:01.501Z,12.47
2023-03-10T03:40:33.735Z,13.00
2023-03-10T03:43:04.498Z,13.23
2023-03-10T03:45:34.812Z,12.93
2023-03-10T03:48:06.282Z,13.47
2023-03-10T03:50:36.909Z,12.03
2023-03-10T03:53:08.434Z,11.87
2023-03-10T03:55:38.511Z,11.90
2023-03-10T03:58:09.888Z,12.73
2023-03-10T04:00:40.757Z,11.88
2023-03-10T04:03:10.983Z,11.60
2023-03-10T04:05:40.823Z,12.20
2023-03-10T04:08:11.631Z,11.88
2023-03-10T04:10:41.586Z,11.43
2023-03-10T04:13:11.470Z,12.53
2023-03-10T04:15:41.391Z,12.33
2023-03-10T04:18:11.788Z,11.24
2023-03-10T04:20:41.615Z,11.70
2023-03-10T04:23:11.377Z,11.73
2023-03-10T04:25:44.566Z,11.20
2023-03-10T04:28:14.294Z,11.80
2023-03-10T04:30:46.453Z,11.83
2023-03-10T04:33:17.638Z,11.73
2023-03-10T04:35:48.903Z,11.87
2023-03-10T04:38:19.555Z,12.40
2023-03-10T04:40:54.689Z,12.03
2023-03-10T04:43:25.107Z,13.07
2023-03-10T04:45:55.767Z,12.93
2023-03-10T04:48:26.012Z,12.47
2023-03-10T04:50:59.537Z,12.45
2023-03-10T04:53:32.459Z,13.23
2023-03-10T04:56:04.830Z,13.10
2023-03-10T04:58:35.450Z,11.90
2023-03-10T05:01:14.310Z,12.77
2023-03-10T05:03:46.013Z,13.90
2023-03-10T05:06:18.426Z,12.75
2023-03-10T05:08:50.011Z,13.53
2023-03-10T05:11:21.105Z,13.32
2023-03-10T05:13:51.366Z,12.87
2023-03-10T05:16:23.679Z,12.53
2023-03-10T05:18:54.696Z,13.37
2023-03-10T05:21:26.301Z,12.83
2023-03-10T05:23:57.065Z,14.63
2023-03-10T05:26:27.231Z,14.43
2023-03-10T05:28:58.519Z,13.83
2023-03-10T05:31:33.045Z,14.27
2023-03-10T05:34:06.401Z,15.27
2023-03-10T05:36:36.270Z,14.50
2023-03-10T05:39:07.674Z,13.97
2023-03-10T05:41:39.235Z,13.70
2023-03-10T05:44:11.618Z,13.24
2023-03-10T05:46:41.766Z,10.97
2023-03-10T05:49:11.631Z,10.60
2023-03-10T05:51:41.529Z,10.40
2023-03-10T05:54:11.837Z,10.45
2023-03-10T05:56:41.852Z,9.73
2023-03-10T05:59:11.654Z,9.93
2023-03-10T06:01:41.484Z,9.30
2023-03-10T06:04:11.961Z,9.62
2023-03-10T06:06:41.838Z,10.77
2023-03-10T06:09:11.620Z,10.30
2023-03-10T06:11:41.406Z,10.00
2023-03-10T06:14:11.468Z,8.93
2023-03-10T06:16:41.386Z,10.00
2023-03-10T06:19:12.043Z,9.27
2023-03-10T06:21:41.898Z,10.47
2023-03-10T06:24:12.401Z,9.73
2023-03-10T06:26:42.581Z,9.93
2023-03-10T06:29:12.234Z,9.80
2023-03-10T06:31:42.234Z,11.00
2023-03-10T06:34:11.836Z,9.63
2023-03-10T06:36:41.815Z,10.47
2023-03-10T06:39:11.817Z,10.97
2023-03-10T06:41:41.686Z,10.87
2023-03-10T06:44:14.588Z,10.75
2023-03-10T06:46:44.400Z,10.40
2023-03-10T06:49:14.244Z,11.10
2023-03-10T06:51:44.012Z,10.87
2023-03-10T06:54:13.915Z,9.70
2023-03-10T06:56:43.779Z,10.20
2023-03-10T06:59:13.328Z,10.23
2023-03-10T07:01:43.482Z,11.40
2023-03-10T07:04:14.271Z,11.75
2023-03-10T07:06:44.251Z,11.77
2023-03-10T07:09:14.130Z,12.03
2023-03-10T07:11:43.829Z,12.00
2023-03-10T07:14:13.635Z,12.00
2023-03-10T07:16:43.559Z,11.13
2023-03-10T07:19:13.827Z,13.13
2023-03-10T07:21:43.945Z,11.73
2023-03-10T07:24:13.829Z,10.65
2023-03-10T07:26:44.141Z,10.40
2023-03-10T07:29:13.915Z,9.13
2023-03-10T07:31:45.612Z,8.37
2023-03-10T07:34:15.247Z,9.30
2023-03-10T07:36:45.009Z,8.17
2023-03-10T07:39:14.904Z,8.80
2023-03-10T07:41:44.651Z,9.30
2023-03-10T07:44:15.311Z,8.78
2023-03-10T07:46:45.150Z,8.40
2023-03-10T07:49:14.931Z,8.20
2023-03-10T07:51:45.036Z,7.25
2023-03-10T07:54:14.701Z,7.80
2023-03-10T07:56:44.290Z,6.50
2023-03-10T07:59:14.043Z,6.90
2023-03-10T08:01:44.204Z,6.03
2023-03-10T08:04:14.419Z,6.00
2023-03-10T08:06:44.260Z,5.77
2023-03-10T08:09:14.002Z,5.90
2023-03-10T08:11:43.794Z,5.50
2023-03-10T08:14:13.718Z,6.08
2023-03-10T08:16:43.196Z,5.15
2023-03-10T08:19:12.977Z,5.07
2023-03-10T08:21:43.692Z,5.60
2023-03-10T08:24:13.302Z,5.40
2023-03-10T08:26:43.111Z,5.63
2023-03-10T08:29:13.013Z,5.43
2023-03-10T08:31:43.528Z,6.33
2023-03-10T08:34:13.387Z,5.63
2023-03-10T08:36:43.932Z,6.50
2023-03-10T08:39:14.447Z,6.27
2023-03-10T08:41:48.767Z,5.87
2023-03-10T08:44:19.679Z,7.05
2023-03-10T08:46:50.189Z,7.10
2023-03-10T08:49:21.956Z,6.77
2023-03-10T08:51:51.792Z,7.10
2023-03-10T08:54:22.833Z,7.80
2023-03-10T08:56:53.240Z,8.23
2023-03-10T08:59:23.104Z,8.60
2023-03-10T09:01:53.451Z,8.85
2023-03-10T09:04:23.152Z,9.70
2023-03-10T09:06:53.078Z,9.50
2023-03-10T09:09:22.929Z,10.17
2023-03-10T09:11:52.830Z,10.27
2023-03-10T09:14:22.667Z,10.00
2023-03-10T09:16:52.596Z,10.33
2023-03-10T09:19:22.939Z,10.53
2023-03-10T09:21:52.822Z,10.93
2023-03-10T09:24:22.725Z,11.20
2023-03-10T09:26:52.999Z,11.73
2023-03-10T09:29:40.324Z,11.03
2023-03-10T09:31:54.762Z,12.37
2023-03-10T09:34:25.969Z,12.40
2023-03-10T09:36:56.172Z,13.32
2023-03-10T09:39:25.944Z,14.40
2023-03-10T09:42:25.526Z,13.50
2023-03-10T09:45:25.654Z,12.40
2023-03-10T09:48:18.816Z,13.10
2023-03-10T09:50:56.000Z,13.70
2023-03-10T09:53:49.466Z,13.87
2023-03-10T09:56:21.883Z,15.03
2023-03-10T09:58:57.291Z,14.25
2023-03-10T10:01:29.826Z,14.80
2023-03-10T10:04:02.915Z,16.05
2023-03-10T10:06:35.770Z,16.00
2023-03-10T10:09:09.861Z,17.40
2023-03-10T10:11:40.593Z,16.27
2023-03-10T10:14:30.313Z,18.24
2023-03-10T10:17:07.476Z,17.50
2023-03-10T10:19:40.425Z,16.95
2023-03-10T10:22:26.709Z,17.10
2023-03-10T10:25:17.369Z,17.37
2023-03-10T10:27:49.085Z,17.00
2023-03-10T10:30:40.366Z,17.17
2023-03-10T10:33:13.102Z,16.93
2023-03-10T10:35:49.329Z,17.47
2023-03-10T10:40:54.686Z,15.48
2023-03-10T10:43:24.454Z,15.40
2023-03-10T10:45:56.808Z,15.90
2023-03-10T10:48:32.619Z,14.50
2023-03-10T10:51:02.456Z,14.23
2023-03-10T10:53:34.454Z,13.37
2023-03-10T10:56:07.573Z,13.60
2023-03-10T10:58:40.570Z,12.90
2023-03-10T11:01:13.317Z,12.53
2023-03-10T11:03:46.116Z,11.77
2023-03-10T11:06:31.737Z,11.73
2023-03-10T11:09:12.446Z,11.33
2023-03-10T11:12:18.430Z,11.13
2023-03-10T11:15:21.268Z,11.27
2023-03-10T11:17:59.410Z,11.40
2023-03-10T11:20:46.960Z,10.68
2023-03-10T11:23:31.828Z,10.37
2023-03-10T11:26:04.701Z,10.23
2023-03-10T11:28:40.766Z,9.97
2023-03-10T11:34:15.209Z,9.33
2023-03-10T11:36:56.585Z,9.73
2023-03-10T11:39:37.081Z,9.93
2023-03-10T11:42:19.735Z,10.10
2023-03-10T11:45:13.198Z,10.55
2023-03-10T11:48:08.376Z,10.13
2023-03-10T11:50:43.975Z,11.43
2023-03-10T11:53:25.342Z,11.57
2023-03-10T11:55:56.751Z,10.73
2023-03-10T11:58:41.263Z,9.08
2023-03-10T12:01:12.933Z,8.70
2023-03-10T12:03:57.487Z,7.90
2023-03-10T12:06:35.809Z,7.87
2023-03-10T12:09:07.654Z,7.40
2023-03-10T12:11:37.714Z,6.67
2023-03-10T12:14:12.892Z,6.30
2023-03-10T12:16:43.386Z,5.63
2023-03-10T12:19:13.232Z,5.07
2023-03-10T12:21:43.101Z,5.67
2023-03-10T12:24:44.409Z,5.15
2023-03-10T12:27:14.351Z,5.20
2023-03-10T12:29:45.309Z,5.00
2023-03-10T12:32:43.518Z,4.60
2023-03-10T12:35:37.286Z,4.47
2023-03-10T12:38:32.171Z,5.20
2023-03-10T12:41:02.280Z,5.77
2023-03-10T12:43:51.613Z,6.23
2023-03-10T12:46:24.668Z,5.15
2023-03-10T12:49:24.341Z,5.43
2023-03-10T12:52:11.773Z,4.77
2023-03-10T12:54:59.388Z,4.90
2023-03-10T12:57:52.874Z,4.10
2023-03-10T13:00:49.027Z,3.93
2023-03-10T13:03:27.935Z,3.50
2023-03-10T13:06:09.398Z,3.20
2023-03-10T13:08:47.708Z,2.73
2023-03-10T13:11:26.129Z,2.87
2023-03-10T13:14:01.863Z,2.60
2023-03-10T13:16:32.786Z,2.40
2023-03-10T13:19:03.875Z,2.40
2023-03-10T13:21:36.510Z,2.30
2023-03-10T13:24:30.633Z,3.25
2023-03-10T13:27:15.213Z,3.00
2023-03-10T13:30:21.094Z,2.73
2023-03-10T13:32:59.896Z,2.63
2023-03-10T13:35:38.104Z,3.00
2023-03-10T13:38:17.309Z,2.47
2023-03-10T13:40:49.799Z,2.50
2023-03-10T13:43:28.657Z,2.83
2023-03-10T13:46:00.572Z,3.20
2023-03-10T13:48:32.728Z,2.70
2023-03-10T13:51:10.757Z,3.30
2023-03-10T13:53:40.728Z,2.90
2023-03-10T13:59:07.432Z,3.33
2023-03-10T14:01:40.381Z,2.83
2023-03-10T14:04:11.799Z,2.20
2023-03-10T14:06:41.652Z,2.63
2023-03-10T14:09:22.727Z,3.57
2023-03-10T14:11:53.027Z,3.10
2023-03-10T14:14:34.556Z,3.87
2023-03-10T14:17:06.903Z,3.20
2023-03-10T14:19:42.689Z,3.67
2023-03-10T14:22:31.671Z,3.58
2023-03-10T14:25:03.995Z,3.23
2023-03-10T14:27:36.196Z,3.03
2023-03-10T14:30:25.415Z,3.22
2023-03-10T14:32:56.543Z,3.15
2023-03-10T14:35:28.220Z,2.57
2023-03-10T14:37:58.943Z,3.57
2023-03-10T14:40:28.946Z,2.80
2023-03-10T14:43:02.231Z,2.77
2023-03-10T14:45:38.298Z,3.07
2023-03-10T14:48:25.445Z,2.20
2023-03-10T14:50:57.015Z,3.80
2023-03-10T14:53:28.143Z,3.67
2023-03-10T14:56:00.946Z,4.03
2023-03-10T14:58:33.984Z,4.17
2023-03-10T15:01:04.373Z,4.12
2023-03-10T15:03:34.394Z,5.23
2023-03-10T15:06:06.963Z,5.04
2023-03-10T15:08:36.741Z,5.87
2023-03-10T15:11:06.940Z,6.00
2023-03-10T15:13:38.693Z,6.23
2023-03-10T15:16:12.666Z,5.70
2023-03-10T15:18:42.498Z,6.53
2023-03-10T15:21:13.922Z,6.33
2023-03-10T15:23:43.684Z,6.30
2023-03-10T15:26:14.195Z,6.75
2023-03-10T15:28:44.058Z,6.60
2023-03-10T15:31:14.246Z,7.20
2023-03-10T15:33:44.061Z,8.23
2023-03-10T15:36:13.917Z,8.35
2023-03-10T15:38:43.704Z,8.47
2023-03-10T15:41:13.547Z,8.80
2023-03-10T15:43:43.388Z,7.97
2023-03-10T15:46:13.424Z,7.07
2023-03-10T15:48:43.659Z,5.22
2023-03-10T15:51:15.436Z,4.80
2023-03-10T15:53:46.079Z,3.33
2023-03-10T15:56:15.831Z,2.83
2023-03-10T15:58:45.630Z,2.67
2023-03-10T16:01:19.806Z,3.00
2023-03-10T16:03:50.026Z,3.00
2023-03-10T16:06:19.517Z,3.57
2023-03-10T16:08:49.298Z,3.50
2023-03-10T16:11:21.618Z,4.00
2023-03-10T16:13:51.383Z,4.33
2023-03-10T16:16:24.085Z,4.60
2023-03-10T16:18:54.239Z,4.70
2023-03-10T16:21:24.067Z,4.30
2023-03-10T16:23:54.019Z,4.40
2023-03-10T16:26:25.331Z,3.60
2023-03-10T16:28:56.009Z,3.87
2023-03-10T16:31:27.516Z,4.65
2023-03-10T16:33:57.623Z,4.80
2023-03-10T16:36:29.492Z,4.73
2023-03-10T16:38:59.294Z,4.30
2023-03-10T16:41:30.008Z,5.72
2023-03-10T16:44:00.052Z,4.70
2023-03-10T16:46:31.381Z,6.00
2023-03-10T16:49:01.968Z,5.00
2023-03-10T16:51:39.912Z,5.20
2023-03-10T16:54:15.188Z,5.18
2023-03-10T16:56:47.877Z,5.57
2023-03-10T16:59:19.870Z,5.53
2023-03-10T17:01:50.472Z,5.30
2023-03-10T17:04:21.167Z,5.37
2023-03-10T17:06:51.016Z,5.83
2023-03-10T17:09:20.820Z,5.73
2023-03-10T17:11:55.348Z,5.80
2023-03-10T17:14:24.898Z,5.33
2023-03-10T17:16:56.163Z,5.57
2023-03-10T17:19:27.558Z,5.10
2023-03-10T17:21:58.596Z,5.10
2023-03-10T17:24:28.873Z,4.97
2023-03-10T17:26:58.347Z,3.85
2023-03-10T17:29:28.129Z,4.00
2023-03-10T17:31:58.044Z,3.17
2023-03-10T17:34:29.315Z,1.87
2023-03-10T17:36:59.061Z,1.47
2023-03-10T17:39:28.989Z,1.03
2023-03-10T17:41:58.864Z,0.93
2023-03-10T17:44:28.481Z,0.93
2023-03-10T17:46:58.167Z,0.80
2023-03-10T17:49:28.251Z,0.78
2023-03-10T17:51:58.204Z,0.93
2023-03-10T17:54:27.985Z,1.00
2023-03-10T17:56:57.781Z,1.60
2023-03-10T17:59:28.709Z,1.60
2023-03-10T18:01:58.619Z,1.67
2023-03-10T18:04:30.128Z,1.40
2023-03-10T18:07:00.148Z,1.20
2023-03-10T18:09:30.315Z,1.25
2023-03-10T18:12:00.371Z,1.25
2023-03-10T18:14:30.258Z,1.40
2023-03-10T18:17:01.705Z,2.13
2023-03-10T18:19:31.460Z,1.47
2023-03-10T18:22:01.269Z,2.40
2023-03-10T18:24:31.060Z,5.17
2023-03-10T18:27:01.705Z,1.50
2023-03-10T18:29:31.553Z,1.47
2023-03-10T18:32:00.987Z,1.50
2023-03-10T18:34:31.075Z,1.80
2023-03-10T18:37:00.960Z,1.60
2023-03-10T18:39:30.705Z,1.60
2023-03-10T18:42:00.504Z,1.43
2023-03-10T18:44:30.591Z,1.90
2023-03-10T18:47:00.353Z,1.47
2023-03-10T18:49:30.342Z,1.63
2023-03-10T18:52:00.270Z,1.80
2023-03-10T18:54:30.429Z,1.83
2023-03-10T18:57:01.636Z,1.63
2023-03-10T18:59:31.505Z,1.50
2023-03-10T19:02:01.205Z,2.08
2023-03-10T19:04:31.101Z,2.30
2023-03-10T19:07:00.841Z,2.70
2023-03-10T19:09:30.609Z,3.00
2023-03-10T19:12:00.660Z,3.30
2023-03-10T19:14:30.461Z,3.63
2023-03-10T19:17:00.222Z,4.53
2023-03-10T19:19:30.126Z,4.87
2023-03-10T19:21:59.901Z,4.90
2023-03-10T19:24:29.789Z,6.28
2023-03-10T19:26:59.656Z,6.60
2023-03-10T19:29:29.575Z,6.70
2023-03-10T19:31:59.495Z,6.67
2023-03-10T19:34:29.378Z,5.80
2023-03-10T19:36:59.172Z,5.27
2023-03-10T19:39:29.015Z,5.07
2023-03-10T19:41:58.961Z,4.30
2023-03-10T19:44:28.759Z,4.00
2023-03-10T19:46:58.610Z,3.93
2023-03-10T19:49:28.758Z,4.35
2023-03-10T19:51:58.531Z,3.83
2023-03-10T19:54:28.219Z,4.43
2023-03-10T19:56:58.122Z,4.30
2023-03-10T19:59:28.278Z,4.33
2023-03-10T20:01:59.729Z,3.00
2023-03-10T20:04:31.208Z,2.62
2023-03-10T20:07:01.159Z,2.53
2023-03-10T20:09:31.587Z,2.33
2023-03-10T20:12:01.788Z,2.35
2023-03-10T20:14:32.067Z,3.55
2023-03-10T20:17:02.144Z,1.80
2023-03-10T20:19:32.325Z,2.58
2023-03-10T20:22:02.485Z,1.92
2023-03-10T20:24:32.327Z,2.30
2023-03-10T20:27:03.193Z,1.40
2023-03-10T20:29:32.961Z,1.63
2023-03-10T20:32:04.406Z,1.80
2023-03-10T20:34:34.331Z,1.80
2023-03-10T20:37:04.065Z,1.40
2023-03-10T20:39:33.849Z,1.47
2023-03-10T20:42:03.342Z,1.30
2023-03-10T20:44:33.170Z,1.83
2023-03-10T20:47:03.277Z,1.55
2023-03-10T20:49:33.046Z,1.80
2023-03-10T20:52:02.909Z,1.77
2023-03-10T20:54:32.671Z,1.20
2023-03-10T20:57:03.423Z,1.30
2023-03-10T20:59:33.271Z,2.00
2023-03-10T21:02:03.097Z,2.07
2023-03-10T21:04:33.803Z,1.80
2023-03-10T21:07:03.571Z,1.70
2023-03-10T21:09:33.491Z,1.77
2023-03-10T21:12:03.235Z,1.47
2023-03-10T21:14:33.080Z,2.13
2023-03-10T21:17:03.254Z,2.13
2023-03-10T21:19:33.397Z,2.00
2023-03-10T21:22:03.551Z,2.27
2023-03-10T21:24:33.266Z,1.90
2023-03-10T21:27:03.054Z,2.10
2023-03-10T21:29:35.484Z,2.08
2023-03-10T21:32:05.533Z,1.97
2023-03-10T21:34:35.770Z,2.23
2023-03-10T21:37:05.688Z,1.87
2023-03-10T21:39:35.555Z,1.80
2023-03-10T21:42:06.952Z,1.70
2023-03-10T21:44:36.743Z,2.17
2023-03-10T21:47:06.852Z,2.08
2023-03-10T21:49:37.094Z,2.17
2023-03-10T21:52:10.472Z,2.40
2023-03-10T21:54:40.606Z,1.73
2023-03-10T21:57:10.414Z,2.10
2023-03-10T21:59:40.447Z,2.03
2023-03-10T22:02:27.856Z,1.83
2023-03-10T22:04:58.071Z,1.75
2023-03-10T22:07:27.806Z,2.00
2023-03-10T22:09:57.648Z,2.27
2023-03-10T22:12:27.272Z,2.00
2023-03-10T22:14:57.796Z,2.33
2023-03-10T22:17:28.366Z,2.58
2023-03-10T22:19:57.953Z,2.20
2023-03-10T22:22:27.679Z,1.98
2023-03-10T22:24:57.436Z,2.13
2023-03-10T22:27:27.217Z,2.07
2023-03-10T22:29:56.952Z,2.80
2023-03-10T22:32:26.493Z,1.90
2023-03-10T22:34:56.941Z,1.70
2023-03-10T22:37:26.774Z,1.90
2023-03-10T22:39:56.852Z,1.60
2023-03-10T22:42:26.399Z,2.40
2023-03-10T22:44:56.248Z,2.23
2023-03-10T22:47:26.080Z,1.77
2023-03-10T22:49:55.937Z,1.67
2023-03-10T22:52:25.944Z,1.87
2023-03-10T22:54:55.773Z,1.83
2023-03-10T22:57:25.567Z,1.97
2023-03-10T22:59:55.337Z,1.53
2023-03-10T23:02:24.889Z,1.50
2023-03-10T23:04:55.565Z,1.57
2023-03-10T23:07:25.314Z,1.30
2023-03-10T23:09:55.265Z,1.23
2023-03-10T23:12:25.849Z,1.30
2023-03-10T23:14:55.607Z,1.60
2023-03-10T23:17:25.707Z,1.82
2023-03-10T23:19:56.980Z,1.27
2023-03-10T23:22:27.916Z,1.77
2023-03-10T23:24:57.724Z,1.93
2023-03-10T23:27:27.552Z,1.40
2023-03-10T23:29:57.387Z,1.53
2023-03-10T23:32:27.172Z,1.60
2023-03-10T23:34:57.354Z,2.30
2023-03-10T23:37:27.237Z,1.57
2023-03-10T23:39:57.285Z,2.10
2023-03-10T23:42:26.810Z,1.90
2023-03-10T23:44:56.583Z,1.63
2023-03-10T23:47:26.629Z,2.17
2023-03-10T23:49:57.179Z,1.50
2023-03-10T23:52:27.067Z,2.50
2023-03-10T23:54:56.987Z,2.60
2023-03-10T23:57:27.668Z,1.70
2023-03-10T23:59:57.744Z,2.62
